Dobrodošli na spletni strani vremenske postaje Senovo. Vse informacije so informativnega značaja, saj vremenska postaja ni del državne mreže meteoroloških postaj. AKTUALNIH OBVESTIL NI.


Sneg/Led Od: 23-02-2018 00:00 Do: 23:59 Opozorilo za: Sneg/Led Stopnja: Rumena info button

Pogled proti Armezu več informacij Pogled proti Armezu


Lisca več informacij Lisca


Radar strel več informacij blitzortung!


opozorilo za sneg/led več informacij rain snow radar


Obiščite še:

Template documentation
and downloads

And another site



Weather Underground, zgodovina - Tekstovno

Dnevni povzetek za Januar 6, 2018 Enote:  Metrično    Angleško   Obe
« Predhodni Dan
Naslednji Dan »
Dnevni Tedenski Mesečni Letni Po meri
  Višja: Nižja: Povprečje:
Temperatura: -17.8 °C -15.4 °C -13.1 °C
Točka rosišča: -17.8 °C -15.7 °C -13.7 °C
Vlažnost: Humidity % 73 % 92 %
Hitrost vetra: 0 km/h 0 km/h 1.6 km/h
Sunki vetra: 0 km/h - -
Veter:- - WSW
Zračni tlak: 0 hPa 34130.9 hPa -
Padavine: 0 mm    
Historical Graphs
 
 
Tabelarni podarki za Januar 6, 2018
Čas Temperatura Točka rosišča Zračni tlak Veter Hitrost vetra Sunki vetra Vlažnost Intenziteta padavin (urna)
-17.8 °C -17.8 °C 0 hPa Calm     Humidity % 0 mm
00:02 -13.5 °C -13.8 °C 34130.9 hPa Calm     96 % 0 mm
00:07 -13.5 °C -13.8 °C 34130.9 hPa Calm     96 % 0 mm
00:09 -13.5 °C -13.8 °C 34130.9 hPa Calm     96 % 0 mm
00:14 -13.4 °C -13.8 °C 34130.9 hPa Calm     96 % 0 mm
00:15 -13.4 °C -13.8 °C 34130.9 hPa Calm     96 % 0 mm
00:20 -13.4 °C -13.8 °C 34130.9 hPa Calm     96 % 0 mm
00:25 -13.4 °C -13.8 °C 34130.9 hPa Calm     96 % 0 mm
00:26 -13.4 °C -13.8 °C 34130.9 hPa Calm     96 % 0 mm
00:31 -13.4 °C -13.7 °C 34130.9 hPa Calm     96 % 0 mm
00:34 -13.4 °C -13.7 °C 34130.9 hPa Calm     96 % 0 mm
00:39 -13.4 °C -13.7 °C 34130.9 hPa Calm     96 % 0 mm
00:43 -13.4 °C -13.7 °C 34130.9 hPa Calm     96 % 0 mm
00:48 -13.4 °C -13.7 °C 34130.9 hPa Calm     96 % 0 mm
00:53 -13.4 °C -13.7 °C 34130.9 hPa Calm     96 % 0 mm
00:56 -13.4 °C -13.7 °C 34130.9 hPa Calm     96 % 0 mm
01:01 -13.4 °C -13.7 °C 34130.9 hPa Calm     96 % 0 mm
01:02 -13.4 °C -13.7 °C 34130.9 hPa Calm     96 % 0 mm
01:07 -13.4 °C -13.7 °C 34130.9 hPa Calm     96 % 0 mm
01:10 -13.4 °C -13.7 °C 34130.9 hPa Calm     96 % 0 mm
01:15 -13.4 °C -13.7 °C 34130.9 hPa Calm     96 % 0 mm
01:19 -13.4 °C -13.7 °C 34130.9 hPa Calm     96 % 0 mm
01:24 -13.4 °C -13.7 °C 34130.9 hPa Calm     96 % 0 mm
01:28 -13.4 °C -13.7 °C 34130.9 hPa Calm     96 % 0 mm
01:33 -13.4 °C -13.7 °C 34130.9 hPa Calm     96 % 0 mm
01:34 -13.4 °C -13.7 °C 34130.9 hPa Calm     96 % 0 mm
01:39 -13.4 °C -13.7 °C 34130.9 hPa Calm     96 % 0 mm
01:44 -13.4 °C -13.8 °C 34130.9 hPa Calm     96 % 0 mm
01:49 -13.4 °C -13.8 °C 34130.9 hPa Calm     96 % 0 mm
01:50 -13.4 °C -13.8 °C 34130.9 hPa Calm     96 % 0 mm
01:52 -13.4 °C -13.8 °C 34130.9 hPa Calm     96 % 0 mm
01:57 -13.4 °C -13.8 °C 34130.9 hPa Calm     96 % 0 mm
02:05 -13.4 °C -13.8 °C 34130.9 hPa Calm     96 % 0 mm
02:08 -13.5 °C -13.8 °C 34130.9 hPa Calm     96 % 0 mm
02:13 -13.5 °C -13.8 °C 34130.9 hPa Calm     96 % 0 mm
02:18 -13.5 °C -13.8 °C 34130.9 hPa Calm     96 % 0 mm
02:24 -13.5 °C -13.8 °C 34130.9 hPa Calm     96 % 0 mm
02:25 -13.5 °C -13.8 °C 34130.9 hPa Calm     96 % 0 mm
02:26 -13.5 °C -13.8 °C 34130.9 hPa Calm     96 % 0 mm
02:30 -13.5 °C -13.8 °C 34130.9 hPa Calm   3.4 km/h 96 % 0 mm
02:35 -13.5 °C -13.8 °C 34130.9 hPa Calm   3.4 km/h 96 % 0 mm
02:36 -13.5 °C -13.8 °C 34130.9 hPa Calm   3.4 km/h 96 % 0 mm
02:41 -13.5 °C -13.8 °C 34130.9 hPa Calm     96 % 0 mm
02:52 -13.5 °C -13.8 °C 34130.9 hPa Calm     96 % 0 mm
02:53 -13.5 °C -13.8 °C 34130.9 hPa Calm     96 % 0 mm
02:58 -13.5 °C -13.8 °C 34130.9 hPa West 1.8 km/h 6.4 km/h 96 % 0 mm
02:59 -13.5 °C -13.8 °C 34130.9 hPa West 2.1 km/h 6.4 km/h 96 % 0 mm
03:04 -13.6 °C -13.9 °C 34130.9 hPa West 2.1 km/h 6.4 km/h 96 % 0 mm
03:05 -13.6 °C -13.9 °C 34130.9 hPa West 1.8 km/h 6.4 km/h 96 % 0 mm
03:10 -13.7 °C -14 °C 34130.9 hPa Calm   5.6 km/h 96 % 0 mm
03:15 -13.8 °C -14.2 °C 34130.9 hPa WSW 0.3 km/h 5.6 km/h 96 % 0 mm
03:17 -13.8 °C -14.2 °C 34130.9 hPa WSW 0.3 km/h 5.6 km/h 96 % 0 mm
03:18 -13.9 °C -14.2 °C 34130.9 hPa WSW 0.3 km/h 5.6 km/h 96 % 0 mm
03:23 -13.9 °C -14.3 °C 34130.9 hPa Calm     96 % 0 mm
03:28 -14.1 °C -14.4 °C 34130.9 hPa WSW 0.8 km/h 8.9 km/h 96 % 0 mm
03:33 -14.2 °C -14.6 °C 34130.9 hPa WSW 0.8 km/h 8.9 km/h 96 % 0 mm
03:38 -14.3 °C -14.6 °C 34130.9 hPa Calm     96 % 0 mm
03:42 -14.3 °C -14.7 °C 34130.9 hPa Calm     96 % 0 mm
03:47 -14.3 °C -14.7 °C 34130.9 hPa Calm     96 % 0 mm
03:49 -14.4 °C -14.7 °C 34130.9 hPa Calm     96 % 0 mm
03:54 -14.4 °C -14.7 °C 34130.9 hPa Calm     96 % 0 mm
03:59 -14.4 °C -14.7 °C 34130.9 hPa Calm     96 % 0 mm
04:04 -14.4 °C -14.7 °C 34130.9 hPa Calm     96 % 0 mm
04:07 -14.4 °C -14.7 °C 34130.9 hPa Calm     96 % 0 mm
04:12 -14.4 °C -14.8 °C 34130.9 hPa Calm     96 % 0 mm
04:18 -14.4 °C -14.8 °C 34130.9 hPa Calm     96 % 0 mm
04:21 -14.4 °C -14.8 °C 34130.9 hPa Calm     96 % 0 mm
04:24 -14.6 °C -14.9 °C 34130.9 hPa Calm     96 % 0 mm
04:29 -14.6 °C -14.9 °C 34130.9 hPa Calm     96 % 0 mm
04:35 -14.7 °C -15.1 °C 34130.9 hPa Calm     96 % 0 mm
04:37 -14.8 °C -15.1 °C 34130.9 hPa Calm     96 % 0 mm
04:42 -14.8 °C -15.2 °C 34130.9 hPa Calm     96 % 0 mm
04:47 -14.9 °C -15.3 °C 34130.9 hPa Calm     96 % 0 mm
04:50 -15 °C -15.3 °C 34130.9 hPa Calm     96 % 0 mm
04:55 -15.1 °C -15.4 °C 34130.9 hPa Calm     96 % 0 mm
04:59 -15.1 °C -15.4 °C 34130.9 hPa Calm     96 % 0 mm
05:04 -15.2 °C -15.5 °C 34130.9 hPa Calm     96 % 0 mm
05:09 -15.2 °C -15.6 °C 34130.9 hPa Calm     96 % 0 mm
05:14 -15.3 °C -15.6 °C 34130.9 hPa Calm     96 % 0 mm
05:18 -15.3 °C -15.7 °C 34130.9 hPa Calm     96 % 0 mm
05:23 -15.4 °C -15.7 °C 34130.9 hPa Calm     96 % 0 mm
05:29 -15.3 °C -15.7 °C 34164.7 hPa WNW 1.6 km/h 8 km/h 96 % 0 mm
05:34 -15.3 °C -15.7 °C 34164.7 hPa WNW 1.8 km/h 8 km/h 96 % 0 mm
05:39 -15.4 °C -15.7 °C 34164.7 hPa Calm     96 % 0 mm
05:44 -15.4 °C -15.7 °C 34164.7 hPa Calm     96 % 0 mm
05:49 -15.3 °C -15.7 °C 34164.7 hPa Calm     96 % 0 mm
05:54 -15.3 °C -15.7 °C 34164.7 hPa Calm     96 % 0 mm
06:08 -15.3 °C -15.6 °C 34130.9 hPa NNW 1 km/h 6.9 km/h 97 % 0 mm
06:13 -15.3 °C -15.5 °C 34164.7 hPa NNW 1 km/h 6.9 km/h 97 % 0 mm
06:18 -15.2 °C -15.4 °C 34164.7 hPa Calm     97 % 0 mm
06:23 -15.2 °C -15.4 °C 34164.7 hPa Calm   6.9 km/h 97 % 0 mm
06:28 -15.3 °C -15.5 °C 34164.7 hPa West 0.8 km/h 6.9 km/h 97 % 0 mm
06:33 -15.3 °C -15.5 °C 34164.7 hPa WNW 1.3 km/h 7.6 km/h 97 % 0 mm
06:35 -15.3 °C -15.5 °C 34164.7 hPa NW 1 km/h 7.6 km/h 97 % 0 mm
06:40 -15.2 °C -15.4 °C 34164.7 hPa NW 1 km/h 7.6 km/h 97 % 0 mm
06:45 -15.2 °C -15.4 °C 34164.7 hPa Calm     97 % 0 mm
06:50 -15.3 °C -15.5 °C 34164.7 hPa Calm     97 % 0 mm
06:51 -15.3 °C -15.5 °C 34164.7 hPa Calm     97 % 0 mm
06:52 -15.3 °C -15.5 °C 34164.7 hPa Calm     97 % 0 mm
06:57 -15.3 °C -15.5 °C 34164.7 hPa West 0.5 km/h 6.4 km/h 97 % 0 mm
06:59 -15.3 °C -15.6 °C 34164.7 hPa West 0.5 km/h 6.4 km/h 97 % 0 mm
07:04 -15.3 °C -15.6 °C 34164.7 hPa WNW 0.3 km/h 5.1 km/h 97 % 0 mm
07:09 -15.3 °C -15.6 °C 34164.7 hPa WNW 0.3 km/h 5.1 km/h 97 % 0 mm
07:10 -15.3 °C -15.6 °C 34164.7 hPa WNW 0.3 km/h 2.9 km/h 97 % 0 mm
07:15 -15.4 °C -15.6 °C 34164.7 hPa Calm     97 % 0 mm
07:20 -15.4 °C -15.6 °C 34164.7 hPa Calm     97 % 0 mm
07:25 -15.4 °C -15.6 °C 34164.7 hPa Calm     97 % 0 mm
07:27 -15.4 °C -15.6 °C 34164.7 hPa Calm     97 % 0 mm
07:32 -15.4 °C -15.6 °C 34130.9 hPa Calm   2.3 km/h 97 % 0 mm
07:37 -15.3 °C -15.6 °C 34130.9 hPa Calm   2.3 km/h 97 % 0 mm
07:42 -15.4 °C -15.6 °C 34130.9 hPa Calm     97 % 0 mm
07:47 -15.4 °C -15.6 °C 34130.9 hPa Calm     97 % 0 mm
07:52 -15.4 °C -15.7 °C 34130.9 hPa Calm     97 % 0 mm
07:57 -15.4 °C -15.7 °C 34130.9 hPa Calm   2.9 km/h 97 % 0 mm
08:02 -15.4 °C -15.6 °C 34164.7 hPa Calm   2.9 km/h 97 % 0 mm
08:07 -15.4 °C -15.7 °C 34164.7 hPa Calm     97 % 0 mm
08:12 -15.4 °C -15.6 °C 34164.7 hPa WSW 0.5 km/h 6.4 km/h 97 % 0 mm
08:17 -15.4 °C -15.7 °C 34164.7 hPa WSW 0.5 km/h 6.4 km/h 97 % 0 mm
08:26 -15.4 °C -15.6 °C 34164.7 hPa Calm     97 % 0 mm
08:31 -15.3 °C -15.5 °C 34164.7 hPa Calm   2.9 km/h 97 % 0 mm
08:33 -15.3 °C -15.5 °C 34164.7 hPa Calm   2.9 km/h 97 % 0 mm
08:38 -15.2 °C -15.4 °C 34164.7 hPa Calm   2.9 km/h 97 % 0 mm
08:42 -15.2 °C -15.4 °C 34164.7 hPa Calm     97 % 0 mm
08:47 -15.1 °C -15.3 °C 34164.7 hPa Calm     97 % 0 mm
08:52 -15 °C -15.2 °C 34164.7 hPa Calm     97 % 0 mm
08:56 -14.9 °C -15.2 °C 34164.7 hPa Calm     97 % 0 mm
08:57 -14.9 °C -15.2 °C 34198.6 hPa Calm     97 % 0 mm
09:02 -14.8 °C -15.1 °C 34198.6 hPa Calm     97 % 0 mm
09:07 -14.7 °C -14.9 °C 34198.6 hPa Calm     97 % 0 mm
09:12 -14.6 °C -14.8 °C 34198.6 hPa Calm     97 % 0 mm
09:17 -14.4 °C -14.7 °C 34198.6 hPa Calm     97 % 0 mm
09:21 -14.4 °C -14.6 °C 34198.6 hPa Calm     97 % 0 mm
09:26 -14.3 °C -14.6 °C 34198.6 hPa Calm     97 % 0 mm
09:31 -14.2 °C -14.4 °C 34235.8 hPa Calm     97 % 0 mm
09:36 -14.1 °C -14.3 °C 34235.8 hPa SE 1.3 km/h 7.6 km/h 97 % 0 mm
09:41 -14 °C -14.3 °C 34235.8 hPa SE 1.3 km/h 7.6 km/h 97 % 0 mm
09:42 -14 °C -14.3 °C 34235.8 hPa SE 1.3 km/h 7.6 km/h 97 % 0 mm
09:47 -13.9 °C -14.1 °C 34235.8 hPa Calm     97 % 0 mm
09:52 -13.8 °C -14.1 °C 34235.8 hPa Calm     97 % 0 mm
09:57 -13.8 °C -14 °C 34235.8 hPa Calm     97 % 0 mm
10:02 -13.7 °C -14 °C 34235.8 hPa SE 0.5 km/h 5.1 km/h 97 % 0 mm
10:07 -13.7 °C -13.9 °C 34235.8 hPa SE 0.5 km/h 5.1 km/h 97 % 0 mm
10:12 -13.6 °C -13.8 °C 34235.8 hPa SSE 0.3 km/h 2.3 km/h 97 % 0 mm
10:17 -13.6 °C -13.8 °C 34235.8 hPa Calm     98 % 0 mm
10:22 -13.5 °C -13.7 °C 34235.8 hPa Calm     98 % 0 mm
10:28 -13.4 °C -13.6 °C 34235.8 hPa Calm     98 % 0 mm
10:33 -13.4 °C -13.6 °C 34235.8 hPa Calm     98 % 0 mm
10:38 -13.3 °C -13.6 °C 34235.8 hPa Calm     97 % 0 mm
10:40 -13.3 °C -13.5 °C 34235.8 hPa Calm     97 % 0 mm
10:45 -13.3 °C -13.5 °C 34198.6 hPa Calm     97 % 0 mm
10:50 -13.2 °C -13.4 °C 34198.6 hPa Calm     97 % 0 mm
10:56 -13.2 °C -13.3 °C 34198.6 hPa Calm     98 % 0 mm
11:01 -13.1 °C -13.2 °C 34235.8 hPa Calm     98 % 0 mm
11:02 -13.1 °C -13.2 °C 34235.8 hPa Calm     98 % 0 mm
11:07 -12.9 °C -13.1 °C 34235.8 hPa Calm     98 % 0 mm
11:12 -12.8 °C -13 °C 34235.8 hPa Calm     98 % 0 mm
11:17 -12.8 °C -12.9 °C 34235.8 hPa Calm     98 % 0 mm
11:22 -12.6 °C -12.8 °C 34235.8 hPa Calm     98 % 0 mm
11:26 -12.6 °C -12.7 °C 34235.8 hPa Calm     98 % 0 mm
11:31 -12.5 °C -12.7 °C 34235.8 hPa Calm     98 % 0 mm
11:36 -12.4 °C -12.6 °C 34235.8 hPa Calm     98 % 0 mm
11:42 -12.3 °C -12.5 °C 34235.8 hPa Calm     98 % 0 mm
11:47 -12.3 °C -12.4 °C 34235.8 hPa Calm     98 % 0 mm
11:52 -12.2 °C -12.4 °C 34235.8 hPa Calm     98 % 0 mm
11:57 -12.2 °C -12.3 °C 34235.8 hPa Calm     98 % 0 mm
12:02 -12.1 °C -12.3 °C 34235.8 hPa Calm     98 % 0 mm
12:04 -12.1 °C -12.2 °C 34235.8 hPa Calm     98 % 0 mm
12:10 -12 °C -12.2 °C 34235.8 hPa Calm     98 % 0 mm
12:15 -11.9 °C -12.1 °C 34235.8 hPa SE 2.1 km/h 7.6 km/h 98 % 0 mm
12:26 -11.8 °C -11.9 °C 34235.8 hPa Calm     98 % 0 mm
12:31 -11.7 °C -11.9 °C 34235.8 hPa Calm     98 % 0 mm
12:36 -11.6 °C -11.8 °C 34235.8 hPa Calm     98 % 0 mm
12:42 -11.6 °C -11.7 °C 34235.8 hPa Calm     98 % 0 mm
12:47 -11.4 °C -11.6 °C 34198.6 hPa West 0.3 km/h 8 km/h 98 % 0 mm
12:51 -11.3 °C -11.4 °C 34198.6 hPa WSW 1 km/h 8 km/h 98 % 0 mm
12:52 -11.3 °C -11.4 °C 34198.6 hPa SW 1.3 km/h 8 km/h 98 % 0 mm
12:57 -11.2 °C -11.3 °C 34235.8 hPa SSE 3.7 km/h 8.9 km/h 98 % 0 mm
12:58 -11.1 °C -11.3 °C 34235.8 hPa SSE 3.9 km/h 8.9 km/h 97 % 0 mm
13:04 -11.1 °C -11.3 °C 34235.8 hPa South 3.7 km/h 10.3 km/h 97 % 0 mm
13:10 -10.9 °C -11.1 °C 34235.8 hPa SSW 4.7 km/h 12.2 km/h 98 % 0 mm
13:15 -10.8 °C -10.9 °C 34198.6 hPa SSW 5.1 km/h 12.2 km/h 98 % 0 mm
13:17 -10.8 °C -10.9 °C 34198.6 hPa SSW 3.9 km/h 9.3 km/h 98 % 0 mm
13:22 -10.7 °C -11 °C 34198.6 hPa South 3.9 km/h 10.3 km/h 97 % 0 mm
13:23 -10.7 °C -11 °C 34198.6 hPa South 3.9 km/h 10.3 km/h 97 % 0 mm
13:28 -10.7 °C -10.9 °C 34164.7 hPa South 3.1 km/h 10.3 km/h 97 % 0 mm
13:33 -10.7 °C -10.9 °C 34164.7 hPa SSE 2.1 km/h 9.3 km/h 97 % 0 mm
13:38 -10.6 °C -10.9 °C 34164.7 hPa SSE 1.8 km/h 9.3 km/h 97 % 0 mm
13:44 -10.6 °C -10.8 °C 34164.7 hPa South 1.6 km/h 9.8 km/h 97 % 0 mm
13:46 -10.5 °C -10.8 °C 34164.7 hPa SSW 3.4 km/h 9.8 km/h 97 % 0 mm
13:48 -10.5 °C -10.8 °C 34164.7 hPa SSW 4.2 km/h 9.8 km/h 97 % 0 mm
13:53 -10.4 °C -10.7 °C 34164.7 hPa SW 6.9 km/h 15.6 km/h 97 % 0 mm
13:55 -10.4 °C -10.7 °C 34164.7 hPa SW 7.6 km/h 15.6 km/h 96 % 0 mm
14:00 -10.4 °C -10.7 °C 34198.6 hPa South 8 km/h 18.7 km/h 96 % 0 mm
14:05 -10.4 °C -10.7 °C 34198.6 hPa SSW 10.1 km/h 20.9 km/h 96 % 0 mm
14:10 -10.4 °C -10.7 °C 34198.6 hPa SW 8.9 km/h 20.9 km/h 96 % 0 mm
14:15 -10.3 °C -10.8 °C 34198.6 hPa SSW 7.6 km/h 15 km/h 95 % 0 mm
14:21 -10.3 °C -10.8 °C 34198.6 hPa SSW 8.9 km/h 17.9 km/h 95 % 0 mm
14:26 -10.3 °C -10.8 °C 34198.6 hPa SSW 8.2 km/h 17.9 km/h 94 % 0 mm
14:32 -10.3 °C -10.9 °C 34198.6 hPa SSW 6.9 km/h 10.3 km/h 93 % 0 mm
14:37 -10.3 °C -10.9 °C 34198.6 hPa SW 6.9 km/h 16.9 km/h 93 % 0 mm
14:38 -10.3 °C -10.9 °C 34198.6 hPa SW 7.2 km/h 16.9 km/h 93 % 0 mm
14:43 -10.3 °C -11 °C 34235.8 hPa SW 7.2 km/h 16.9 km/h 92 % 0 mm
14:53 -10.2 °C -11.1 °C 34235.8 hPa SW 7.7 km/h 16.9 km/h 90 % 0 mm
14:55 -10.2 °C -11.2 °C 34235.8 hPa SSW 7.7 km/h 16.9 km/h 89 % 0 mm
15:01 -10.2 °C -11.3 °C 34235.8 hPa SW 9.3 km/h 16.9 km/h 88 % 0 mm
15:04 -10.2 °C -11.3 °C 34235.8 hPa SSW 9.3 km/h 15.6 km/h 88 % 0 mm
15:09 -10.2 °C -11.5 °C 34235.8 hPa SSW 6.9 km/h 14.5 km/h 86 % 0 mm
15:13 -10.2 °C -11.5 °C 34235.8 hPa SSW 6.9 km/h 14.5 km/h 86 % 0 mm
15:18 -10.2 °C -11.6 °C 34235.8 hPa SSW 8.2 km/h 22 km/h 85 % 0 mm
15:24 -10.2 °C -11.7 °C 34235.8 hPa South 7.7 km/h 18.7 km/h 84 % 0 mm
15:26 -10.2 °C -11.8 °C 34235.8 hPa South 5.6 km/h 14 km/h 83 % 0 mm
15:31 -10.2 °C -11.8 °C 34235.8 hPa South 7.7 km/h 16.3 km/h 83 % 0 mm
15:36 -10.2 °C -11.8 °C 34235.8 hPa SSW 8.5 km/h 17.4 km/h 82 % 0 mm
15:41 -10.2 °C -11.9 °C 34235.8 hPa SSW 11.1 km/h 27.2 km/h 81 % 0 mm
15:44 -10.2 °C -12.1 °C 34235.8 hPa SSW 13.2 km/h 27.2 km/h 80 % 0 mm
15:49 -10.1 °C -12 °C 34235.8 hPa SSW 12.7 km/h 27.2 km/h 80 % 0 mm
15:52 -10.1 °C -12.1 °C 34235.8 hPa SSW 11.6 km/h 19.6 km/h 79 % 0 mm
15:57 -10.1 °C -12.2 °C 34235.8 hPa SSW 9.3 km/h 19.6 km/h 78 % 0 mm
15:59 -10.1 °C -12.2 °C 34235.8 hPa SSW 9.3 km/h 17.4 km/h 78 % 0 mm
16:04 -10.1 °C -12.3 °C 34235.8 hPa SSW 8.9 km/h 17.4 km/h 77 % 0 mm
16:09 -10.2 °C -12.4 °C 34235.8 hPa SSW 8.5 km/h 15.6 km/h 76 % 0 mm
16:14 -10.2 °C -12.7 °C 34269.7 hPa SSW 8.2 km/h 16.9 km/h 75 % 0 mm
16:20 -10.3 °C -12.9 °C 34269.7 hPa South 7.7 km/h 16.9 km/h 74 % 0 mm
16:24 -10.4 °C -12.9 °C 34269.7 hPa South 9 km/h 20.9 km/h 74 % 0 mm
16:29 -10.4 °C -12.9 °C 34269.7 hPa South 10.3 km/h 20.9 km/h 74 % 0 mm
16:33 -10.5 °C -13 °C 34269.7 hPa SSW 9 km/h 17.4 km/h 74 % 0 mm
16:39 -10.7 °C -13.2 °C 34269.7 hPa SSW 7.2 km/h 16.3 km/h 74 % 0 mm
16:44 -10.8 °C -13.4 °C 34198.6 hPa South 6 km/h 11.1 km/h 73 % 0 mm
16:49 -10.9 °C -13.6 °C 34198.6 hPa South 5.1 km/h 16.9 km/h 73 % 0 mm
16:52 -11.1 °C -13.7 °C 34198.6 hPa South 5 km/h 16.9 km/h 73 % 0 mm
16:57 -11.3 °C -13.9 °C 34198.6 hPa WSW 4.7 km/h 16.9 km/h 73 % 0 mm
16:58 -11.4 °C -14.1 °C 34235.8 hPa West 5 km/h 16.9 km/h 73 % 0 mm
17:03 -11.7 °C -14.3 °C 34235.8 hPa WNW 6 km/h 9.8 km/h 73 % 0 mm
17:08 -11.8 °C -14.3 °C 34235.8 hPa WNW 5 km/h 9.8 km/h 74 % 0 mm
17:13 -12.1 °C -14.5 °C 34198.6 hPa WNW 1 km/h 6.9 km/h 74 % 0 mm
17:15 -12.1 °C -14.6 °C 34198.6 hPa NW 0.8 km/h 6.9 km/h 74 % 0 mm
17:20 -12.3 °C -14.7 °C 34198.6 hPa Calm     75 % 0 mm
17:26 -12.5 °C -14.8 °C 34198.6 hPa Calm     75 % 0 mm
17:31 -12.6 °C -14.9 °C 34235.8 hPa Calm     75 % 0 mm
17:36 -12.8 °C -15 °C 34235.8 hPa West 0.3 km/h 5.6 km/h 76 % 0 mm
17:42 -12.8 °C -15.1 °C 34235.8 hPa West 0.5 km/h 2.9 km/h 76 % 0 mm
17:43 -12.9 °C -15.1 °C 34235.8 hPa West 0.3 km/h 2.9 km/h 76 % 0 mm
17:44 -12.9 °C -15.1 °C 34235.8 hPa West 0.3 km/h 2.9 km/h 76 % 0 mm
17:45 -12.9 °C -15.1 °C 34198.6 hPa West 0.3 km/h 2.9 km/h 76 % 0 mm
17:46 -12.9 °C -15.1 °C 34198.6 hPa West 0.3 km/h 2.9 km/h 77 % 0 mm
17:48 -12.9 °C -15.1 °C 34198.6 hPa West 0.3 km/h 2.9 km/h 77 % 0 mm
17:50 -12.9 °C -15.1 °C 34198.6 hPa Calm     77 % 0 mm
17:51 -12.9 °C -15.1 °C 34198.6 hPa Calm     77 % 0 mm
18:01 -12.9 °C -15.1 °C 34198.6 hPa Calm     77 % 0 mm
18:05 -13 °C -14.9 °C 34235.8 hPa North 0.3 km/h   79 % 0 mm
18:10 -12.9 °C -14.8 °C 34235.8 hPa Calm     80 % 0 mm
18:14 -13 °C -14.7 °C 34235.8 hPa Calm     81 % 0 mm
18:19 -13 °C -14.6 °C 34235.8 hPa Calm     82 % 0 mm
18:24 -13 °C -14.6 °C 34235.8 hPa Calm     82 % 0 mm
18:29 -13 °C -14.5 °C 34235.8 hPa NNW 0.3 km/h 6.9 km/h 83 % 0 mm
18:34 -13 °C -14.5 °C 34235.8 hPa NW 1.8 km/h 6.9 km/h 83 % 0 mm
18:39 -12.9 °C -14.3 °C 34235.8 hPa NNW 2.3 km/h 6.9 km/h 84 % 0 mm
18:44 -12.9 °C -14.3 °C 34235.8 hPa NNW 1.6 km/h 6.9 km/h 84 % 0 mm
18:49 -12.8 °C -14.2 °C 34235.8 hPa NW 0.8 km/h 6.4 km/h 84 % 0 mm
18:52 -12.8 °C -14.1 °C 34235.8 hPa NW 0.8 km/h 6.4 km/h 85 % 0 mm
18:57 -12.7 °C -14.1 °C 34269.7 hPa WSW 0.5 km/h 6.4 km/h 85 % 0 mm
18:59 -12.7 °C -14 °C 34269.7 hPa West 1 km/h 6.4 km/h 85 % 0 mm
19:04 -12.7 °C -14 °C 34269.7 hPa WNW 1 km/h 6.4 km/h 85 % 0 mm
19:05 -12.6 °C -13.8 °C 34269.7 hPa WNW 1 km/h 6.4 km/h 86 % 0 mm
19:10 -12.6 °C -13.8 °C 34269.7 hPa WNW 3.9 km/h 18.7 km/h 86 % 0 mm
19:15 -12.5 °C -13.7 °C 34269.7 hPa NW 5.5 km/h 18.7 km/h 86 % 0 mm
19:20 -12.4 °C -13.5 °C 34269.7 hPa WNW 3.9 km/h 16.9 km/h 87 % 0 mm
19:25 -12.2 °C -13.3 °C 34269.7 hPa WSW 5.6 km/h 16.9 km/h 87 % 0 mm
19:30 -12 °C -13.1 °C 34269.7 hPa West 6.8 km/h 15 km/h 88 % 0 mm
19:34 -12 °C -13.1 °C 34269.7 hPa West 6 km/h 15 km/h 88 % 0 mm
19:40 -11.9 °C -12.9 °C 34269.7 hPa West 3.9 km/h 12.2 km/h 88 % 0 mm
19:42 -11.8 °C -12.8 °C 34269.7 hPa West 3.4 km/h 10.3 km/h 89 % 0 mm
19:48 -11.7 °C -12.7 °C 34269.7 hPa West 4.2 km/h 10.3 km/h 89 % 0 mm
19:53 -11.7 °C -12.6 °C 34269.7 hPa West 2.6 km/h 10.3 km/h 89 % 0 mm
19:54 -11.7 °C -12.6 °C 34269.7 hPa West 3.1 km/h 10.3 km/h 89 % 0 mm
19:59 -11.7 °C -12.7 °C 34269.7 hPa WNW 3.4 km/h 10.3 km/h 89 % 0 mm
20:02 -11.7 °C -12.7 °C 34269.7 hPa West 4.3 km/h 10.3 km/h 89 % 0 mm
20:03 -11.7 °C -12.7 °C 34269.7 hPa West 4.3 km/h 7.6 km/h 89 % 0 mm
20:09 -11.7 °C -12.7 °C 34269.7 hPa WSW 2.1 km/h 7.6 km/h 89 % 0 mm
20:14 -11.7 °C -12.7 °C 34269.7 hPa WNW 0.8 km/h 5.6 km/h 89 % 0 mm
20:15 -11.8 °C -12.7 °C 34269.7 hPa WNW 0.8 km/h 5.6 km/h 89 % 0 mm
20:20 -11.8 °C -12.8 °C 34269.7 hPa West 0.5 km/h 5.1 km/h 89 % 0 mm
20:23 -11.9 °C -12.9 °C 34269.7 hPa Calm     89 % 0 mm
20:29 -12 °C -12.9 °C 34269.7 hPa Calm     89 % 0 mm
20:32 -12.1 °C -13 °C 34269.7 hPa Calm     89 % 0 mm
20:37 -12.2 °C -13.1 °C 34269.7 hPa Calm     89 % 0 mm
20:42 -12.2 °C -13.2 °C 34269.7 hPa Calm     89 % 0 mm
20:47 -12.2 °C -13.2 °C 34269.7 hPa Calm     89 % 0 mm
20:52 -12.3 °C -13.2 °C 34269.7 hPa Calm     89 % 0 mm
20:57 -12.3 °C -13.2 °C 34269.7 hPa Calm     89 % 0 mm
21:02 -12.4 °C -13.3 °C 34303.6 hPa NW 0.5 km/h 5.1 km/h 89 % 0 mm
21:05 -12.4 °C -13.3 °C 34303.6 hPa NW 0.5 km/h 5.1 km/h 89 % 0 mm
21:10 -12.4 °C -13.3 °C 34303.6 hPa North 0.3 km/h   89 % 0 mm
21:13 -12.4 °C -13.4 °C 34303.6 hPa Calm     89 % 0 mm
21:18 -12.5 °C -13.4 °C 34303.6 hPa Calm   5.1 km/h 90 % 0 mm
21:20 -12.6 °C -13.4 °C 34303.6 hPa NW 0.5 km/h 5.6 km/h 90 % 0 mm
21:25 -12.6 °C -13.5 °C 34303.6 hPa NW 0.8 km/h 5.6 km/h 90 % 0 mm
21:30 -12.6 °C -13.5 °C 34303.6 hPa NW 0.3 km/h 2.9 km/h 90 % 0 mm
21:35 -12.6 °C -13.5 °C 34303.6 hPa Calm     90 % 0 mm
21:40 -12.7 °C -13.6 °C 34303.6 hPa NW 0.5 km/h 6.9 km/h 90 % 0 mm
21:43 -12.8 °C -13.7 °C 34337.4 hPa NW 2.1 km/h 6.9 km/h 90 % 0 mm
21:48 -12.8 °C -13.7 °C 34337.4 hPa NW 2.3 km/h 6.9 km/h 90 % 0 mm
21:53 -12.9 °C -13.8 °C 34337.4 hPa North 0.3 km/h   90 % 0 mm
21:58 -12.9 °C -13.8 °C 34303.6 hPa Calm     90 % 0 mm
22:04 -13 °C -13.8 °C 34303.6 hPa Calm   3.4 km/h 91 % 0 mm
22:06 -13 °C -13.8 °C 34303.6 hPa Calm   3.4 km/h 91 % 0 mm
22:11 -13.1 °C -13.8 °C 34303.6 hPa West 0.5 km/h 5.6 km/h 91 % 0 mm
22:13 -13.1 °C -13.8 °C 34303.6 hPa NW 0.5 km/h 8 km/h 91 % 0 mm
22:18 -13.1 °C -13.8 °C 34303.6 hPa NNW 2.6 km/h 8 km/h 91 % 0 mm
22:23 -13 °C -13.8 °C 34303.6 hPa NW 3.1 km/h 7.6 km/h 91 % 0 mm
22:28 -13 °C -13.8 °C 34269.7 hPa NW 1.3 km/h 7.6 km/h 91 % 0 mm
22:33 -13 °C -13.8 °C 34269.7 hPa Calm     91 % 0 mm
22:38 -13 °C -13.7 °C 34269.7 hPa Calm   2.9 km/h 92 % 0 mm
22:43 -13 °C -13.7 °C 34269.7 hPa Calm   8 km/h 92 % 0 mm
22:48 -13 °C -13.7 °C 34269.7 hPa WNW 0.8 km/h 8 km/h 92 % 0 mm
22:53 -13.1 °C -13.7 °C 34269.7 hPa West 0.8 km/h 6.4 km/h 92 % 0 mm
22:58 -13.1 °C -13.7 °C 34269.7 hPa Calm     92 % 0 mm
23:03 -13.2 °C -13.8 °C 34269.7 hPa Calm   3.4 km/h 92 % 0 mm
23:05 -13.2 °C -13.8 °C 34269.7 hPa Calm   3.4 km/h 92 % 0 mm
23:10 -13.3 °C -13.9 °C 34269.7 hPa Calm     92 % 0 mm
23:15 -13.3 °C -14 °C 34303.6 hPa Calm   4.2 km/h 92 % 0 mm
23:20 -13.4 °C -14.1 °C 34303.6 hPa West 0.3 km/h 4.2 km/h 92 % 0 mm
23:25 -13.6 °C -14.3 °C 34303.6 hPa West 0.3 km/h 2.3 km/h 92 % 0 mm
23:26 -13.6 °C -14.3 °C 34303.6 hPa Calm     92 % 0 mm
23:31 -13.7 °C -14.4 °C 34303.6 hPa Calm     92 % 0 mm
23:33 -13.8 °C -14.4 °C 34303.6 hPa Calm     92 % 0 mm
23:39 -13.9 °C -14.6 °C 34303.6 hPa Calm     92 % 0 mm
23:40 -13.9 °C -14.6 °C 34303.6 hPa Calm     92 % 0 mm
23:45 -13.9 °C -14.6 °C 34303.6 hPa Calm     93 % 0 mm
23:50 -14.1 °C -14.6 °C 34303.6 hPa Calm     93 % 0 mm
23:55 -14.1 °C -14.6 °C 34303.6 hPa Calm     93 % 0 mm
Vremenska postaja Senovo
Podatki zbrani iz Weather Underground - 3.25 mb

Script developed by  Jim McMurry - jmcmurry@mwt.net Adapted for the template by  Wim van der Kuil - Leuven-Template.eu

Vremenski podatki so objavljeni na:

European Weather Network

WeatherCloud

Weather Underground

AWEKAS

HAMweather, WeatherForYou, PWS Weather

MapView

Geostik

Slovenia weather network

Oprema, ki se uporablja:

Vremenski program
Cumulus

Vremenski server
Asus

Cumulus

Asus